Time;durP1;ratioP1;P1;durP2;ratioP2;P2;SDS_P1;SDS_P2;PMS_P1;PMS_P2;Temp;Humidity;BMP_temperature;BMP_pressure;BME280_temperature;BME280_humidity;BME280_pressure;Samples;Min_cycle;Max_cycle;Signal;HPM_P1;HPM_P2
2024/03/20 00:02:13;;;;;;;4.53;3.00;;;;;;;6.71;57.36;101519.41;4868956;29;20670;-66
2024/03/20 00:04:41;;;;;;;4.03;3.45;;;;;;;6.82;57.48;101516.44;4859540;29;20607;-67
2024/03/20 00:07:09;;;;;;;4.75;3.90;;;;;;;6.90;57.12;101516.44;4865866;29;20474;-67
2024/03/20 00:09:37;;;;;;;5.13;2.55;;;;;;;6.88;57.18;101521.13;4862063;29;20573;-67
2024/03/20 00:12:07;;;;;;;10.50;4.22;;;;;;;6.85;58.00;101516.94;4868741;29;20707;-68
2024/03/20 00:14:35;;;;;;;5.25;3.10;;;;;;;6.79;58.72;101516.75;4861985;29;20680;-66
2024/03/20 00:17:07;;;;;;;3.22;2.50;;;;;;;6.83;57.90;101518.94;4853573;29;20259;-66
2024/03/20 00:19:35;;;;;;;6.28;4.55;;;;;;;6.80;58.02;101513.06;4864769;29;20211;-66
2024/03/20 00:22:03;;;;;;;8.13;3.22;;;;;;;6.95;57.19;101516.81;4862189;29;20245;-66
2024/03/20 00:24:31;;;;;;;11.30;4.18;;;;;;;6.88;57.34;101516.59;4866372;29;20207;-65
2024/03/20 00:27:00;;;;;;;3.33;2.10;;;;;;;6.60;58.37;101511.63;4863238;29;20344;-66
2024/03/20 00:29:29;;;;;;;2.45;2.25;;;;;;;6.64;59.29;101502.22;4861869;29;20226;-66
2024/03/20 00:31:57;;;;;;;7.65;3.72;;;;;;;6.60;58.82;101500.84;4863368;29;20196;-65
2024/03/20 00:34:25;;;;;;;9.57;4.15;;;;;;;6.51;59.12;101500.84;4865526;29;20191;-66
2024/03/20 00:36:53;;;;;;;5.28;2.78;;;;;;;6.49;58.87;101494.75;4865303;29;20206;-67
2024/03/20 00:39:20;;;;;;;3.33;2.92;;;;;;;6.32;59.38;101493.00;4864727;29;20238;-66
2024/03/20 00:41:48;;;;;;;4.90;3.65;;;;;;;6.19;60.96;101481.00;4864381;29;20220;-66
2024/03/20 00:44:16;;;;;;;2.95;1.33;;;;;;;6.30;61.23;101488.78;4861958;29;20223;-66
2024/03/20 00:46:45;;;;;;;6.55;2.35;;;;;;;6.14;61.66;101481.50;4861721;29;20636;-65
2024/03/20 00:49:13;;;;;;;6.28;2.45;;;;;;;6.09;63.20;101483.81;4861684;29;20219;-67
2024/03/20 00:51:41;;;;;;;3.45;2.92;;;;;;;5.90;62.14;101481.34;4862266;29;20218;-68
2024/03/20 00:54:08;;;;;;;2.60;1.92;;;;;;;5.84;62.74;101481.94;4867574;29;20196;-66
2024/03/20 00:56:38;;;;;;;9.23;4.28;;;;;;;5.76;63.89;101479.19;4868171;29;20248;-65
2024/03/20 00:59:06;;;;;;;8.23;3.17;;;;;;;5.59;64.12;101481.75;4868524;29;20227;-66
2024/03/20 01:01:34;;;;;;;6.72;2.78;;;;;;;5.60;65.02;101485.28;4869364;29;20565;-67
2024/03/20 01:04:03;;;;;;;10.40;3.35;;;;;;;5.41;65.15;101480.09;4863051;29;20195;-67
2024/03/20 01:06:31;;;;;;;10.32;3.63;;;;;;;5.72;65.88;101477.78;4863059;29;20192;-67
2024/03/20 01:08:58;;;;;;;3.63;2.05;;;;;;;5.65;64.66;101470.38;4868387;29;20203;-67
2024/03/20 01:11:26;;;;;;;6.40;3.22;;;;;;;5.70;64.97;101475.28;4850932;29;20248;-67
2024/03/20 01:13:54;;;;;;;6.55;2.95;;;;;;;5.46;65.91;101467.88;4861866;29;20199;-67
2024/03/20 01:16:22;;;;;;;2.60;2.20;;;;;;;5.57;66.50;101469.47;4860674;29;20265;-67
2024/03/20 01:18:50;;;;;;;9.98;4.80;;;;;;;5.51;67.42;101464.72;4860750;29;20293;-67
2024/03/20 01:21:19;;;;;;;3.35;2.67;;;;;;;5.46;67.42;101457.16;4861310;29;20243;-66
2024/03/20 01:23:47;;;;;;;4.25;3.60;;;;;;;5.52;67.78;101461.03;4872753;29;20682;-67
2024/03/20 01:26:15;;;;;;;4.03;2.65;;;;;;;5.52;66.44;101453.81;4859389;29;20223;-66
2024/03/20 01:28:43;;;;;;;5.35;3.38;;;;;;;5.39;66.23;101452.53;4867334;29;20199;-66
2024/03/20 01:31:11;;;;;;;5.80;3.50;;;;;;;5.41;67.14;101455.91;4859533;29;20203;-68
2024/03/20 01:33:39;;;;;;;5.35;3.00;;;;;;;5.29;67.55;101449.94;4861435;29;20191;-67
2024/03/20 01:36:07;;;;;;;5.88;2.67;;;;;;;5.31;68.74;101449.78;4860568;29;20529;-67
2024/03/20 01:38:36;;;;;;;5.00;2.42;;;;;;;5.47;67.99;101464.19;4863552;29;20577;-66
2024/03/20 01:41:10;;;;;;;7.10;2.75;;;;;;;5.62;69.09;101462.63;4859803;29;20564;-66
2024/03/20 01:43:38;;;;;;;4.68;3.85;;;;;;;5.38;68.92;101459.75;4873923;29;20202;-67
2024/03/20 01:46:25;;;;;;;5.20;4.55;;;;;;;5.16;68.54;101455.72;4872534;29;20223;-65
2024/03/20 01:48:54;;;;;;;7.70;3.75;;;;;;;5.20;69.06;101456.25;4864259;29;20239;-66
2024/03/20 01:51:22;;;;;;;3.33;2.05;;;;;;;5.37;69.43;101463.44;4860471;29;20196;-65
2024/03/20 01:53:51;;;;;;;5.70;4.05;;;;;;;5.52;68.50;101458.34;4860759;29;20619;-67
2024/03/20 01:56:19;;;;;;;6.45;4.43;;;;;;;5.33;68.21;101467.41;4867229;29;20240;-67
2024/03/20 01:58:47;;;;;;;6.30;3.20;;;;;;;5.32;69.02;101464.91;4865239;29;20222;-68
2024/03/20 02:01:15;;;;;;;12.02;3.53;;;;;;;5.25;68.92;101470.03;4864211;29;20186;-64
2024/03/20 02:03:43;;;;;;;5.00;3.30;;;;;;;5.28;68.83;101469.72;4870644;29;20229;-66
2024/03/20 02:06:22;;;;;;;8.32;4.35;;;;;;;5.20;68.65;101461.59;4853255;29;20223;-66
2024/03/20 02:08:52;;;;;;;5.13;3.70;;;;;;;5.15;69.48;101471.94;4860410;29;20199;-67
2024/03/20 02:11:21;;;;;;;5.80;3.30;;;;;;;5.18;69.35;101475.16;4868838;29;20259;-67
2024/03/20 02:13:50;;;;;;;3.55;2.25;;;;;;;5.20;69.47;101470.50;4866189;29;20195;-67
2024/03/20 02:16:19;;;;;;;2.50;1.80;;;;;;;5.33;68.84;101464.72;4847266;29;20286;-67
2024/03/20 02:18:48;;;;;;;5.32;2.25;;;;;;;5.38;69.19;101461.59;4864948;29;20317;-66
2024/03/20 02:21:19;;;;;;;5.93;3.70;;;;;;;5.44;69.02;101472.56;4867032;29;20646;-65
2024/03/20 02:23:48;;;;;;;4.18;2.55;;;;;;;5.50;68.68;101474.63;4860412;29;20665;-67
2024/03/20 02:26:16;;;;;;;2.20;2.00;;;;;;;5.67;67.75;101471.06;4860257;29;20218;-66
2024/03/20 02:28:46;;;;;;;4.45;3.30;;;;;;;5.76;67.44;101468.44;4864192;29;20198;-65
2024/03/20 02:31:15;;;;;;;4.57;4.00;;;;;;;5.83;67.48;101473.03;4861222;29;20196;-66
2024/03/20 02:33:44;;;;;;;3.85;3.42;;;;;;;5.80;67.64;101473.34;4857442;29;20591;-66
2024/03/20 02:36:12;;;;;;;9.48;6.53;;;;;;;5.92;67.75;101468.56;4867503;29;20244;-66
2024/03/20 02:38:41;;;;;;;4.88;2.45;;;;;;;5.82;68.00;101467.81;4862288;29;20287;-66
2024/03/20 02:41:10;;;;;;;5.30;3.75;;;;;;;5.88;67.98;101467.22;4865507;29;20199;-65
2024/03/20 02:43:38;;;;;;;5.88;3.50;;;;;;;5.84;68.10;101468.50;4862465;29;20198;-65
2024/03/20 02:46:06;;;;;;;6.63;2.45;;;;;;;5.78;68.23;101466.44;4860070;29;20250;-66
2024/03/20 02:48:34;;;;;;;5.60;2.85;;;;;;;5.87;68.08;101466.38;4868119;29;20199;-67
2024/03/20 02:51:02;;;;;;;3.05;2.50;;;;;;;5.91;67.68;101461.50;4861968;29;20708;-67
2024/03/20 02:53:30;;;;;;;6.05;3.65;;;;;;;5.91;68.22;101466.88;4872309;29;20194;-66
2024/03/20 02:55:59;;;;;;;6.45;3.10;;;;;;;5.84;68.71;101465.81;4861505;29;20218;-67
2024/03/20 02:58:27;;;;;;;4.03;2.63;;;;;;;5.77;68.80;101465.59;4865841;29;20194;-66
2024/03/20 03:00:55;;;;;;;3.92;2.90;;;;;;;5.87;68.60;101460.16;4861053;29;20653;-66
2024/03/20 03:03:23;;;;;;;4.53;4.20;;;;;;;5.81;68.94;101466.13;4861267;29;20199;-67
2024/03/20 03:05:51;;;;;;;4.03;3.63;;;;;;;5.84;69.05;101465.81;4859929;29;20651;-66
2024/03/20 03:08:19;;;;;;;5.15;4.25;;;;;;;5.83;69.12;101466.81;4859163;29;20205;-66
2024/03/20 03:10:47;;;;;;;5.45;3.58;;;;;;;5.80;69.56;101457.25;4861934;29;20290;-66
2024/03/20 03:13:16;;;;;;;3.63;3.30;;;;;;;6.11;69.28;101462.97;4869148;29;20198;-66
2024/03/20 03:15:44;;;;;;;5.25;2.45;;;;;;;5.92;68.64;101463.19;4838051;29;20713;-65
2024/03/20 03:18:12;;;;;;;5.57;3.08;;;;;;;5.89;68.75;101464.38;4865709;29;20195;-68
2024/03/20 03:20:42;;;;;;;4.63;1.45;;;;;;;5.93;69.08;101467.59;4863057;29;20222;-66
2024/03/20 03:23:10;;;;;;;2.75;2.33;;;;;;;5.85;69.34;101468.34;4860810;29;20568;-66
2024/03/20 03:25:39;;;;;;;5.72;4.20;;;;;;;5.82;69.47;101465.13;4855449;29;20246;-66
2024/03/20 03:28:07;;;;;;;7.40;5.30;;;;;;;5.80;70.24;101470.66;4866185;29;20234;-66
2024/03/20 03:30:36;;;;;;;7.70;2.55;;;;;;;5.90;69.90;101462.53;4863635;29;20219;-66
2024/03/20 03:33:04;;;;;;;3.60;2.28;;;;;;;5.88;69.94;101461.84;4859336;29;20229;-67
2024/03/20 03:35:32;;;;;;;9.52;3.38;;;;;;;5.90;69.62;101463.38;4863580;29;20199;-66
2024/03/20 03:38:00;;;;;;;8.45;3.47;;;;;;;5.92;69.95;101465.88;4860007;29;20204;-67
2024/03/20 03:40:28;;;;;;;4.63;2.92;;;;;;;6.01;69.51;101468.47;4862471;29;20280;-67
2024/03/20 03:42:56;;;;;;;5.75;4.00;;;;;;;5.95;69.35;101470.97;4867420;29;20191;-67
2024/03/20 03:45:24;;;;;;;5.10;4.00;;;;;;;5.93;69.52;101467.59;4860446;29;20214;-66
2024/03/20 03:47:53;;;;;;;4.80;2.47;;;;;;;6.06;69.70;101470.69;4859970;29;20253;-66
2024/03/20 03:50:21;;;;;;;9.95;5.53;;;;;;;6.08;69.38;101468.69;4866887;29;20238;-66
2024/03/20 03:52:49;;;;;;;6.93;3.10;;;;;;;5.94;69.83;101467.44;4865344;29;20203;-67
2024/03/20 03:55:17;;;;;;;6.50;3.00;;;;;;;5.93;70.41;101470.25;4863769;29;20267;-67
2024/03/20 03:57:45;;;;;;;4.40;3.00;;;;;;;5.97;70.50;101460.88;4863085;29;20259;-65
2024/03/20 04:00:14;;;;;;;3.55;3.03;;;;;;;6.19;70.59;101468.44;4863215;29;20289;-66
2024/03/20 04:02:42;;;;;;;4.75;2.47;;;;;;;6.24;69.75;101470.63;4859160;29;20210;-67
2024/03/20 04:05:11;;;;;;;6.82;4.10;;;;;;;6.31;69.33;101467.13;4862455;29;20220;-67
2024/03/20 04:07:39;;;;;;;4.75;3.88;;;;;;;6.33;69.13;101467.81;4862629;29;20214;-67
2024/03/20 04:10:07;;;;;;;6.72;3.25;;;;;;;6.14;69.02;101468.06;4862463;29;20215;-67
2024/03/20 04:12:35;;;;;;;2.55;2.00;;;;;;;6.16;69.83;101459.81;4862478;29;20188;-67
2024/03/20 04:15:04;;;;;;;4.78;2.13;;;;;;;6.08;70.28;101455.25;4861995;29;20242;-67
2024/03/20 04:17:32;;;;;;;4.53;3.22;;;;;;;6.20;70.46;101456.66;4862049;29;20227;-68
2024/03/20 04:19:59;;;;;;;3.95;2.75;;;;;;;6.34;70.16;101461.41;4862310;29;20211;-67
2024/03/20 04:22:29;;;;;;;11.25;6.45;;;;;;;6.46;68.95;101459.28;4862910;29;20203;-66
2024/03/20 04:24:57;;;;;;;8.90;3.75;;;;;;;6.29;69.42;101460.25;4862446;29;20192;-66
2024/03/20 04:27:25;;;;;;;7.00;3.13;;;;;;;6.25;70.85;101472.28;4877782;29;20210;-67
2024/03/20 04:29:53;;;;;;;2.47;2.28;;;;;;;6.26;70.36;101466.75;4862689;29;20262;-67
2024/03/20 04:32:20;;;;;;;8.25;4.75;;;;;;;6.46;69.98;101457.44;4868327;29;20199;-66
2024/03/20 04:34:48;;;;;;;3.88;2.85;;;;;;;6.37;69.36;101461.13;4864138;29;20202;-66
2024/03/20 04:37:16;;;;;;;4.10;3.42;;;;;;;6.25;69.36;101459.69;4862015;29;20195;-67
2024/03/20 04:39:45;;;;;;;2.97;2.70;;;;;;;6.25;69.69;101458.84;4868844;29;20257;-66
2024/03/20 04:42:13;;;;;;;5.20;3.42;;;;;;;6.16;70.35;101457.13;4869033;29;20237;-66
2024/03/20 04:44:41;;;;;;;10.32;3.90;;;;;;;6.17;69.90;101453.44;4865734;29;20207;-64
2024/03/20 04:47:09;;;;;;;6.32;3.50;;;;;;;6.10;70.12;101455.91;4862334;29;20211;-66
2024/03/20 04:49:37;;;;;;;7.97;3.45;;;;;;;6.09;70.50;101452.41;4862313;29;20712;-66
2024/03/20 04:52:04;;;;;;;4.53;3.38;;;;;;;6.21;71.00;101452.97;4862119;29;20199;-67
2024/03/20 04:54:32;;;;;;;3.40;2.55;;;;;;;6.16;70.70;101454.44;4844302;29;20199;-66
2024/03/20 04:57:18;;;;;;;8.43;5.88;;;;;;;6.18;72.16;101447.91;4863026;29;20191;-66
2024/03/20 04:59:45;;;;;;;7.20;3.35;;;;;;;6.05;71.39;101453.72;4872770;29;20229;-66
2024/03/20 05:02:13;;;;;;;11.25;4.80;;;;;;;6.14;70.61;101451.94;4872772;29;20759;-66
2024/03/20 05:04:41;;;;;;;7.22;3.90;;;;;;;6.24;71.03;101455.34;4869261;29;20203;-66
2024/03/20 05:07:09;;;;;;;3.22;2.92;;;;;;;6.31;70.05;101459.06;4864512;29;20238;-66
2024/03/20 05:09:37;;;;;;;9.85;5.88;;;;;;;6.21;70.58;101460.19;4876038;29;20294;-65
2024/03/20 05:12:05;;;;;;;5.38;3.80;;;;;;;6.20;70.84;101467.41;4861460;29;20211;-66
2024/03/20 05:14:34;;;;;;;10.60;3.97;;;;;;;5.97;71.14;101458.19;4867369;29;20260;-66
2024/03/20 05:17:03;;;;;;;5.72;2.95;;;;;;;5.89;72.01;101452.78;4866264;29;20251;-67
2024/03/20 05:19:31;;;;;;;4.45;3.22;;;;;;;5.83;71.77;101454.22;4870980;29;20219;-67
2024/03/20 05:21:59;;;;;;;8.55;3.75;;;;;;;5.78;71.98;101455.69;4870365;29;20195;-67
2024/03/20 05:24:27;;;;;;;3.33;3.05;;;;;;;5.78;72.20;101456.53;4861226;29;20298;-66
2024/03/20 05:26:53;;;;;;;4.80;3.75;;;;;;;5.98;71.75;101462.56;4869693;29;20202;-66
2024/03/20 05:29:22;;;;;;;8.40;3.28;;;;;;;5.90;71.96;101466.06;4864942;29;20714;-67
2024/03/20 05:31:50;;;;;;;4.07;2.55;;;;;;;5.85;73.16;101459.44;4861038;29;20303;-67
2024/03/20 05:34:18;;;;;;;4.35;2.63;;;;;;;6.03;72.05;101461.09;4861079;29;20207;-66
2024/03/20 05:36:45;;;;;;;9.30;4.60;;;;;;;6.02;72.02;101459.41;4862363;29;20783;-63
2024/03/20 05:39:12;;;;;;;2.88;2.58;;;;;;;6.00;71.96;101460.59;4865647;29;20268;-66
2024/03/20 05:45:40;;;;;;;2.97;2.65;;;;;;;6.16;71.73;101460.66;4858446;29;20224;-67
2024/03/20 05:48:09;;;;;;;8.30;3.08;;;;;;;5.97;71.94;101463.56;4859950;29;20285;-66
2024/03/20 05:50:36;;;;;;;5.60;3.88;;;;;;;5.95;72.14;101468.28;4863896;29;20223;-67
2024/03/20 05:53:03;;;;;;;5.60;2.95;;;;;;;6.09;72.19;101470.38;4861166;29;20282;-67
2024/03/20 05:55:32;;;;;;;10.90;4.78;;;;;;;6.02;72.06;101469.31;4864025;29;20195;-66
2024/03/20 05:57:59;;;;;;;12.82;4.60;;;;;;;6.18;71.32;101464.03;4860840;29;20199;-67
2024/03/20 06:00:26;;;;;;;7.10;3.30;;;;;;;6.20;71.61;101462.03;4860856;29;20283;-66
2024/03/20 06:02:55;;;;;;;11.07;5.13;;;;;;;6.23;71.74;101466.25;4860763;29;20200;-66
2024/03/20 06:05:23;;;;;;;4.75;3.35;;;;;;;6.28;71.58;101463.94;4863357;29;20207;-68
2024/03/20 06:07:51;;;;;;;6.57;2.65;;;;;;;6.52;70.87;101456.81;4862706;29;20244;-67
2024/03/20 06:10:18;;;;;;;5.60;3.45;;;;;;;6.73;69.78;101458.25;4870138;29;20845;-67
2024/03/20 06:12:46;;;;;;;7.43;4.07;;;;;;;6.80;69.34;101470.00;4860521;29;20207;-68
2024/03/20 06:15:13;;;;;;;6.00;4.35;;;;;;;6.96;67.90;101470.06;4860149;29;20319;-67
2024/03/20 06:17:40;;;;;;;10.27;3.72;;;;;;;6.97;68.11;101472.56;4861037;29;20752;-67
2024/03/20 06:20:08;;;;;;;3.50;3.20;;;;;;;6.86;68.53;101472.06;4845370;29;20224;-65
2024/03/20 06:22:37;;;;;;;5.78;3.35;;;;;;;6.91;67.89;101472.41;4861700;29;20191;-66
2024/03/20 06:25:06;;;;;;;3.13;2.80;;;;;;;7.08;68.11;101468.72;4864572;29;20274;-66
2024/03/20 06:27:34;;;;;;;7.28;3.22;;;;;;;7.09;67.75;101473.09;4863279;29;20212;-65
2024/03/20 06:30:04;;;;;;;9.38;5.78;;;;;;;7.30;66.92;101461.88;4866236;29;20219;-67
2024/03/20 06:32:33;;;;;;;10.13;4.13;;;;;;;7.40;65.88;101463.41;4865611;29;20187;-66
2024/03/20 06:35:00;;;;;;;7.63;4.13;;;;;;;7.46;65.43;101467.25;4861507;29;20195;-66
2024/03/20 06:37:28;;;;;;;12.05;5.28;;;;;;;7.47;65.99;101466.25;4847147;29;20195;-66
2024/03/20 06:39:57;;;;;;;5.55;3.63;;;;;;;7.34;65.81;101458.69;4845811;29;20234;-68
2024/03/20 06:42:24;;;;;;;5.63;4.13;;;;;;;7.39;66.03;101458.16;4860442;29;20247;-67
2024/03/20 06:44:51;;;;;;;4.85;2.38;;;;;;;7.43;66.66;101460.34;4859947;29;20199;-70
2024/03/20 06:47:19;;;;;;;6.80;4.45;;;;;;;7.43;66.20;101463.06;4859836;29;20692;-68
2024/03/20 06:49:47;;;;;;;6.72;4.72;;;;;;;7.58;65.10;101460.53;4847315;29;20268;-67
2024/03/20 06:52:16;;;;;;;6.32;4.20;;;;;;;7.52;65.46;101468.44;4864491;29;20197;-68
2024/03/20 06:54:46;;;;;;;6.32;3.60;;;;;;;7.35;65.89;101459.53;4864005;29;20201;-68
2024/03/20 06:57:15;;;;;;;8.98;3.70;;;;;;;7.29;66.19;101465.56;4862586;29;20274;-67
2024/03/20 06:59:42;;;;;;;7.47;3.95;;;;;;;7.34;65.89;101464.06;4866521;29;20222;-67
2024/03/20 07:02:16;;;;;;;5.57;3.13;;;;;;;7.64;65.78;101464.41;4862949;29;20575;-67
2024/03/20 07:04:43;;;;;;;7.15;3.85;;;;;;;7.83;64.26;101464.03;4865907;29;20196;-68
2024/03/20 07:07:13;;;;;;;5.70;4.15;;;;;;;7.82;64.59;101467.75;4861803;29;20202;-66
2024/03/20 07:09:39;;;;;;;5.43;4.50;;;;;;;7.98;63.19;101467.72;4860586;29;20681;-66
2024/03/20 07:12:08;;;;;;;8.93;4.47;;;;;;;8.03;63.09;101462.66;4866242;29;20201;-67
2024/03/20 07:14:36;;;;;;;9.32;6.25;;;;;;;8.33;62.52;101460.25;4867197;29;20290;-66
2024/03/20 07:17:05;;;;;;;6.28;3.97;;;;;;;8.48;62.28;101466.59;4861987;29;20188;-67
2024/03/20 07:19:35;;;;;;;9.13;4.68;;;;;;;8.70;60.65;101466.69;4862646;29;20251;-67
2024/03/20 07:22:03;;;;;;;12.88;5.60;;;;;;;8.61;60.08;101473.13;4865865;29;20235;-68
2024/03/20 07:24:30;;;;;;;6.32;4.90;;;;;;;8.61;60.00;101475.81;4863175;29;20681;-66
2024/03/20 07:26:58;;;;;;;15.57;6.18;;;;;;;8.69;60.48;101473.09;4864564;29;20210;-66
2024/03/20 07:29:27;;;;;;;6.05;2.85;;;;;;;8.99;59.27;101476.81;4863509;29;20684;-65
2024/03/20 07:31:56;;;;;;;4.95;4.38;;;;;;;9.06;58.53;101480.47;4866273;29;20187;-65
2024/03/20 07:34:23;;;;;;;10.52;3.70;;;;;;;9.19;57.83;101479.91;4867346;29;20240;-66
2024/03/20 07:36:51;;;;;;;6.85;4.35;;;;;;;9.01;58.48;101477.44;4862107;29;20276;-66
2024/03/20 07:39:19;;;;;;;10.52;5.18;;;;;;;9.11;58.67;101483.47;4859655;29;20296;-66
2024/03/20 07:41:47;;;;;;;5.43;4.60;;;;;;;9.02;58.59;101486.41;4864244;29;20202;-66
2024/03/20 07:44:15;;;;;;;6.00;4.40;;;;;;;9.15;58.06;101473.97;4862492;29;20198;-67
2024/03/20 07:46:43;;;;;;;10.30;3.97;;;;;;;9.29;57.94;101474.25;4868707;29;20237;-66
2024/03/20 07:49:11;;;;;;;5.93;5.20;;;;;;;9.59;56.98;101479.56;4867403;29;20724;-66
2024/03/20 07:51:39;;;;;;;17.13;6.22;;;;;;;9.90;55.51;101489.44;4865969;29;20195;-66
2024/03/20 07:54:06;;;;;;;6.50;4.40;;;;;;;10.30;53.91;101485.53;4858384;29;20191;-67
2024/03/20 07:56:34;;;;;;;6.78;4.53;;;;;;;10.48;53.01;101493.25;4860003;29;20523;-66
2024/03/20 07:59:01;;;;;;;9.00;4.77;;;;;;;10.38;52.15;101485.44;4867071;29;20195;-67
2024/03/20 08:01:29;;;;;;;7.93;4.77;;;;;;;10.61;51.37;101499.69;4858401;29;20455;-67
2024/03/20 08:03:56;;;;;;;6.70;4.70;;;;;;;10.73;50.36;101491.94;4865634;29;20479;-67
2024/03/20 08:06:25;;;;;;;5.70;5.20;;;;;;;10.84;49.07;101492.28;4861505;29;20472;-66
2024/03/20 08:08:52;;;;;;;9.03;5.97;;;;;;;10.88;50.30;101490.91;4863248;29;20443;-68
2024/03/20 08:11:20;;;;;;;8.23;4.57;;;;;;;10.82;49.39;101497.06;4844210;29;20810;-67
2024/03/20 08:13:47;;;;;;;5.53;4.73;;;;;;;10.77;48.56;101502.19;4863004;29;20467;-66
2024/03/20 08:16:16;;;;;;;7.70;4.17;;;;;;;11.09;48.52;101502.78;4860271;29;20535;-65
2024/03/20 08:18:43;;;;;;;9.27;5.00;;;;;;;10.99;48.46;101504.97;4863161;29;20509;-65
2024/03/20 08:21:13;;;;;;;22.90;8.03;;;;;;;11.04;48.37;101499.81;4859535;29;20471;-66
2024/03/20 08:23:41;;;;;;;6.23;4.60;;;;;;;11.26;48.04;101510.50;4858720;29;20474;-68
2024/03/20 08:26:09;;;;;;;10.70;6.13;;;;;;;11.54;46.79;101505.16;4858924;29;20440;-68
2024/03/20 08:28:53;;;;;;;12.07;5.37;;;;;;;11.48;45.66;101508.63;4858953;29;20456;-66
2024/03/20 08:31:20;;;;;;;9.03;6.67;;;;;;;11.35;45.62;101513.91;4865143;29;20450;-66
2024/03/20 08:33:47;;;;;;;11.17;6.30;;;;;;;11.48;45.42;101516.75;4866904;29;20459;-66
2024/03/20 08:36:15;;;;;;;8.50;4.87;;;;;;;11.42;45.16;101522.13;4850872;29;20416;-67
2024/03/20 08:38:45;;;;;;;8.57;4.93;;;;;;;11.55;45.27;101514.97;4865775;29;20522;-66
2024/03/20 08:41:13;;;;;;;13.43;8.50;;;;;;;11.88;44.81;101518.00;4867383;29;20447;-68
2024/03/20 08:43:40;;;;;;;8.80;6.23;;;;;;;12.05;44.49;101521.28;4854602;29;20459;-67
2024/03/20 08:46:10;;;;;;;8.80;5.67;;;;;;;12.35;44.18;101511.91;4865865;29;20444;-65
2024/03/20 08:48:38;;;;;;;7.87;4.70;;;;;;;12.55;41.81;101523.72;4865893;29;20829;-66
2024/03/20 08:51:06;;;;;;;6.30;4.70;;;;;;;12.59;41.27;101516.84;4846657;29;20583;-65
2024/03/20 08:53:34;;;;;;;14.00;5.57;;;;;;;12.64;41.39;101517.09;4868713;29;20436;-65
2024/03/20 08:56:06;;;;;;;8.90;5.60;;;;;;;12.47;40.97;101521.19;4863299;29;20825;-67
2024/03/20 08:58:33;;;;;;;8.30;6.70;;;;;;;12.37;41.17;101509.84;4860625;29;20938;-67
2024/03/20 09:01:00;;;;;;;7.30;4.27;;;;;;;12.53;40.56;101508.69;4863480;29;20456;-67
2024/03/20 09:03:30;;;;;;;8.80;5.57;;;;;;;12.56;40.48;101509.13;4872278;29;20928;-66
2024/03/20 09:05:58;;;;;;;6.77;6.10;;;;;;;12.70;40.38;101506.47;4849491;29;20459;-66
2024/03/20 09:08:25;;;;;;;6.97;5.87;;;;;;;12.98;40.30;101502.63;4867486;29;20531;-66
2024/03/20 09:10:52;;;;;;;7.63;5.00;;;;;;;13.34;38.65;101507.78;4867066;29;20485;-65
2024/03/20 09:13:22;;;;;;;9.63;5.57;;;;;;;13.39;38.45;101505.28;4867791;29;20477;-65
2024/03/20 09:15:50;;;;;;;11.03;5.07;;;;;;;13.53;38.76;101503.44;4864477;29;20512;-66
2024/03/20 09:18:16;;;;;;;6.43;4.90;;;;;;;13.66;38.96;101505.31;4859123;29;20441;-67
2024/03/20 09:20:44;;;;;;;8.53;4.73;;;;;;;13.85;36.93;101505.34;4866816;29;20459;-67
2024/03/20 09:23:11;;;;;;;16.00;5.13;;;;;;;13.61;37.10;101507.81;4863871;29;20979;-67
2024/03/20 09:25:39;;;;;;;6.53;5.07;;;;;;;13.56;37.53;101499.44;4860687;29;20468;-67
2024/03/20 09:28:06;;;;;;;9.83;5.20;;;;;;;13.56;37.89;101500.28;4860815;29;20472;-67
2024/03/20 09:30:35;;;;;;;9.57;5.70;;;;;;;13.71;38.50;101500.94;4863012;29;20512;-67
2024/03/20 09:33:01;;;;;;;7.97;4.90;;;;;;;13.80;37.54;101490.69;4860073;29;20468;-66
2024/03/20 09:35:29;;;;;;;7.20;4.10;;;;;;;13.95;37.62;101491.31;4859962;29;20435;-67
2024/03/20 09:37:56;;;;;;;4.77;4.40;;;;;;;14.08;38.00;101494.06;4862751;29;20447;-67
2024/03/20 09:40:26;;;;;;;8.50;4.70;;;;;;;14.10;38.61;101497.38;4860464;29;21091;-66
2024/03/20 09:42:54;;;;;;;7.50;4.90;;;;;;;14.44;38.32;101499.03;4863799;29;20506;-66
2024/03/20 09:45:24;;;;;;;4.07;3.43;;;;;;;14.62;38.10;101492.94;4863300;29;20897;-68
2024/03/20 09:47:52;;;;;;;7.83;5.57;;;;;;;15.00;37.37;101488.38;4850305;29;20446;-66
2024/03/20 09:50:21;;;;;;;6.10;4.70;;;;;;;15.17;37.18;101484.09;4861862;29;20471;-67
2024/03/20 09:52:49;;;;;;;7.90;5.23;;;;;;;15.37;37.18;101483.13;4866461;29;20465;-67
2024/03/20 09:55:18;;;;;;;4.20;3.57;;;;;;;15.52;37.07;101476.34;4863139;29;20426;-68
2024/03/20 09:57:47;;;;;;;20.93;5.10;;;;;;;15.56;37.49;101483.03;4858885;29;20472;-67
2024/03/20 10:00:16;;;;;;;6.13;3.83;;;;;;;15.61;37.18;101479.66;4850588;29;20499;-67
2024/03/20 10:02:44;;;;;;;7.70;5.07;;;;;;;15.69;37.56;101465.72;4866046;29;20419;-68
2024/03/20 10:05:13;;;;;;;7.40;5.00;;;;;;;15.67;37.61;101477.94;4860981;29;20419;-68
2024/03/20 10:07:41;;;;;;;6.83;5.00;;;;;;;15.69;37.56;101478.53;4861368;29;20520;-68
2024/03/20 10:10:12;;;;;;;8.10;4.80;;;;;;;15.68;37.83;101480.44;4861644;29;20472;-65
2024/03/20 10:12:40;;;;;;;6.43;5.13;;;;;;;15.85;38.85;101476.09;4866077;29;20591;-66
2024/03/20 10:15:08;;;;;;;7.17;4.30;;;;;;;15.91;38.73;101475.22;4855794;29;20446;-66
2024/03/20 10:17:36;;;;;;;6.13;5.53;;;;;;;15.99;38.91;101472.19;4858826;29;20415;-67
2024/03/20 10:20:17;;;;;;;7.33;4.07;;;;;;;15.99;38.63;101463.16;4863648;29;20987;-67
2024/03/20 10:22:45;;;;;;;8.77;4.10;;;;;;;16.24;38.81;101457.66;4863067;29;20443;-67
2024/03/20 10:25:16;;;;;;;5.30;3.80;;;;;;;16.19;38.73;101460.25;4868983;29;20933;-68
2024/03/20 10:27:45;;;;;;;6.63;4.20;;;;;;;16.15;39.23;101453.56;4862010;29;20610;-67
2024/03/20 10:30:16;;;;;;;18.50;5.47;;;;;;;16.03;39.79;101457.03;4860168;29;20788;-68
2024/03/20 10:32:47;;;;;;;5.07;3.23;;;;;;;16.27;39.79;101457.22;4854404;29;20440;-68
2024/03/20 10:35:18;;;;;;;5.53;5.03;;;;;;;16.50;39.26;101446.47;4849236;29;20853;-67
2024/03/20 10:37:47;;;;;;;5.00;3.47;;;;;;;16.31;39.78;101442.91;4862874;29;20455;-68
2024/03/20 10:40:17;;;;;;;10.27;4.17;;;;;;;16.53;39.79;101452.31;4862325;29;20460;-67
2024/03/20 10:42:46;;;;;;;6.97;4.10;;;;;;;16.68;39.51;101449.22;4862496;29;20449;-66
2024/03/20 10:45:14;;;;;;;4.77;4.00;;;;;;;16.71;39.19;101443.28;4860968;29;20414;-66
2024/03/20 10:47:44;;;;;;;5.57;4.87;;;;;;;17.04;39.36;101447.50;4848085;29;20473;-67
2024/03/20 10:50:18;;;;;;;6.63;3.70;;;;;;;17.42;38.91;101444.41;4866113;29;20496;-66
2024/03/20 10:52:46;;;;;;;7.63;3.70;;;;;;;17.37;38.80;101437.75;4856682;29;20435;-66
2024/03/20 10:55:17;;;;;;;10.00;3.80;;;;;;;17.22;39.25;101434.63;4865388;29;20410;-67
2024/03/20 10:57:46;;;;;;;8.50;4.43;;;;;;;17.35;38.98;101433.56;4868788;29;20440;-66
2024/03/20 11:00:17;;;;;;;6.60;5.00;;;;;;;17.50;39.52;101425.75;4864913;29;20467;-67
2024/03/20 11:02:44;;;;;;;10.67;3.90;;;;;;;17.98;38.97;101432.97;4862964;29;20445;-67
2024/03/20 11:05:39;;;;;;;9.70;5.23;;;;;;;17.65;38.92;101428.06;4865136;29;20591;-67
2024/03/20 11:08:07;;;;;;;5.57;4.93;;;;;;;17.75;39.25;101431.06;4869148;29;20476;-67
2024/03/20 11:10:36;;;;;;;6.17;4.00;;;;;;;18.16;39.00;101424.63;4866286;29;20439;-67
2024/03/20 11:13:04;;;;;;;7.03;4.63;;;;;;;18.32;38.41;101423.06;4864161;29;20633;-66
2024/03/20 11:15:33;;;;;;;6.23;4.30;;;;;;;17.86;38.47;101429.41;4861749;29;20431;-67
2024/03/20 11:18:01;;;;;;;6.13;4.60;;;;;;;18.00;38.51;101426.22;4863159;29;20415;-66
2024/03/20 11:20:46;;;;;;;9.07;5.60;;;;;;;18.02;38.75;101423.22;4861776;29;20948;-67
2024/03/20 11:23:24;;;;;;;6.60;5.43;;;;;;;18.08;38.63;101422.25;4859050;29;20848;-66
2024/03/20 11:25:57;;;;;;;5.13;4.63;;;;;;;18.02;39.31;101423.22;4857576;29;20891;-67
2024/03/20 11:28:23;;;;;;;5.33;4.30;;;;;;;18.39;38.86;101419.16;4858177;29;20991;-67
2024/03/20 11:30:52;;;;;;;5.67;4.07;;;;;;;18.66;38.39;101414.81;4858649;29;20460;-66
2024/03/20 11:33:19;;;;;;;7.93;4.80;;;;;;;18.56;38.82;101419.25;4860010;29;20764;-67
2024/03/20 11:35:49;;;;;;;5.70;4.30;;;;;;;18.29;38.99;101412.59;4860321;29;20454;-66
2024/03/20 11:38:20;;;;;;;6.33;4.30;;;;;;;17.86;39.71;101411.09;4860156;29;20427;-67
2024/03/20 11:40:48;;;;;;;6.20;5.00;;;;;;;18.47;39.33;101410.53;4861020;29;20462;-67